createdAt,value
2022-08-02T00:02:25.399Z,99445.38
2022-08-02T00:04:56.988Z,99447.56
2022-08-02T00:07:28.630Z,99438.59
2022-08-02T00:10:05.597Z,99442.78
2022-08-02T00:12:39.913Z,99442.56
2022-08-02T00:15:16.025Z,99445.72
2022-08-02T00:17:49.446Z,99442.31
2022-08-02T00:20:21.260Z,99444.66
2022-08-02T00:22:59.938Z,99439.50
2022-08-02T00:25:34.561Z,99445.47
2022-08-02T00:28:06.154Z,99444.88
2022-08-02T00:30:38.449Z,99440.81
2022-08-02T00:33:10.083Z,99445.59
2022-08-02T00:35:47.286Z,99443.59
2022-08-02T00:38:18.994Z,99440.31
2022-08-02T00:40:56.485Z,99438.13
2022-08-02T00:43:29.601Z,99451.66
2022-08-02T00:46:03.207Z,99443.31
2022-08-02T00:48:35.565Z,99449.47
2022-08-02T00:51:13.954Z,99450.25
2022-08-02T00:53:45.637Z,99444.75
2022-08-02T00:56:17.245Z,99450.34
2022-08-02T00:58:51.154Z,99453.84
2022-08-02T01:01:38.572Z,99452.56
2022-08-02T01:04:30.216Z,99457.13
2022-08-02T01:07:12.887Z,99450.94
2022-08-02T01:09:46.717Z,99460.25
2022-08-02T01:12:20.746Z,99461.31
2022-08-02T01:14:58.721Z,99463.63
2022-08-02T01:17:59.462Z,99465.81
2022-08-02T01:21:10.707Z,99458.69
2022-08-02T01:23:57.597Z,99454.34
2022-08-02T01:26:46.890Z,99448.78
2022-08-02T01:29:34.842Z,99452.72
2022-08-02T01:32:13.402Z,99459.13
2022-08-02T01:35:04.467Z,99464.13
2022-08-02T01:37:47.921Z,99451.53
2022-08-02T01:40:27.754Z,99466.00
2022-08-02T01:43:01.316Z,99472.41
2022-08-02T01:45:35.820Z,99468.06
2022-08-02T01:48:12.449Z,99469.09
2022-08-02T01:50:48.319Z,99471.00
2022-08-02T01:53:23.009Z,99457.59
2022-08-02T01:55:59.160Z,99463.16
2022-08-02T01:58:33.878Z,99470.84
2022-08-02T02:01:10.438Z,99464.06
2022-08-02T02:03:48.914Z,99463.69
2022-08-02T02:06:22.910Z,99460.66
2022-08-02T02:08:55.913Z,99452.00
2022-08-02T02:12:11.804Z,99462.00
2022-08-02T02:14:20.793Z,99460.44
2022-08-02T02:16:56.877Z,99455.97
2022-08-02T02:19:29.224Z,99452.75
2022-08-02T02:22:01.538Z,99454.69
2022-08-02T02:24:37.297Z,99454.75
2022-08-02T02:27:11.896Z,99451.63
2022-08-02T02:29:52.276Z,99451.84
2022-08-02T02:32:27.618Z,99451.03
2022-08-02T02:35:01.442Z,99444.94
2022-08-02T02:37:35.378Z,99449.97
2022-08-02T02:40:09.083Z,99451.47
2022-08-02T02:42:43.037Z,99464.19
2022-08-02T02:45:21.954Z,99456.53
2022-08-02T02:47:55.941Z,99459.78
2022-08-02T02:50:28.716Z,99463.28
2022-08-02T02:53:01.475Z,99466.78
2022-08-02T02:55:34.158Z,99463.09
2022-08-02T02:58:12.798Z,99469.25
2022-08-02T03:01:03.778Z,99473.19
2022-08-02T03:03:36.163Z,99474.25
2022-08-02T03:06:15.800Z,99477.34
2022-08-02T03:08:47.985Z,99473.72
2022-08-02T03:11:20.064Z,99477.88
2022-08-02T03:13:53.860Z,99481.84
2022-08-02T03:16:28.333Z,99482.69
2022-08-02T03:19:02.080Z,99483.50
2022-08-02T03:21:33.637Z,99490.09
2022-08-02T03:24:06.608Z,99493.03
2022-08-02T03:26:42.216Z,99494.66
2022-08-02T03:29:13.958Z,99493.84
2022-08-02T03:31:51.454Z,99489.72
2022-08-02T03:34:26.729Z,99496.72
2022-08-02T03:36:59.856Z,99498.13
2022-08-02T03:39:35.704Z,99504.56
2022-08-02T03:42:09.131Z,99504.75
2022-08-02T03:44:48.963Z,99498.13
2022-08-02T03:47:22.056Z,99506.97
2022-08-02T03:49:55.950Z,99515.63
2022-08-02T03:52:31.546Z,99520.78
2022-08-02T03:55:03.849Z,99526.13
2022-08-02T03:57:39.750Z,99523.06
2022-08-02T04:00:18.011Z,99540.38
2022-08-02T04:02:50.065Z,99544.72
2022-08-02T04:05:21.922Z,99547.97
2022-08-02T04:08:33.786Z,99553.94
2022-08-02T04:11:04.475Z,99557.44
2022-08-02T04:13:37.838Z,99561.75
2022-08-02T04:16:23.259Z,99559.28
2022-08-02T04:19:05.505Z,99558.31
2022-08-02T04:21:51.357Z,99563.28
2022-08-02T04:24:32.178Z,99568.84
2022-08-02T04:27:49.123Z,99569.44
2022-08-02T04:30:00.811Z,99571.31
2022-08-02T04:32:33.142Z,99566.59
2022-08-02T04:35:21.124Z,99573.59
2022-08-02T04:38:09.999Z,99578.28
2022-08-02T04:40:54.036Z,99572.69
2022-08-02T04:43:27.851Z,99573.44
2022-08-02T04:46:02.687Z,99571.97
2022-08-02T04:48:34.410Z,99573.78
2022-08-02T04:51:06.761Z,99575.94
2022-08-02T04:53:38.391Z,99568.63
2022-08-02T04:56:11.212Z,99560.44
2022-08-02T04:58:44.890Z,99570.34
2022-08-02T05:01:16.791Z,99567.22
2022-08-02T05:03:48.476Z,99569.44
2022-08-02T05:06:20.299Z,99577.63
2022-08-02T05:08:53.300Z,99580.25
2022-08-02T05:11:36.210Z,99577.50
2022-08-02T05:14:09.026Z,99582.81
2022-08-02T05:16:40.620Z,99579.91
2022-08-02T05:19:12.261Z,99578.31
2022-08-02T05:21:43.851Z,99578.00
2022-08-02T05:24:15.598Z,99569.44
2022-08-02T05:26:47.209Z,99572.38
2022-08-02T05:29:21.414Z,99575.28
2022-08-02T05:31:53.128Z,99577.13
2022-08-02T05:34:24.809Z,99581.06
2022-08-02T05:36:56.975Z,99573.59
2022-08-02T05:39:31.905Z,99575.03
2022-08-02T05:42:03.879Z,99578.69
2022-08-02T05:44:35.568Z,99577.41
2022-08-02T05:47:07.450Z,99580.44
2022-08-02T05:49:39.102Z,99575.19
2022-08-02T05:52:19.731Z,99577.91
2022-08-02T05:55:16.077Z,99575.13
2022-08-02T05:58:12.470Z,99568.00
2022-08-02T06:00:45.585Z,99562.81
2022-08-02T06:03:31.372Z,99563.53
2022-08-02T06:06:13.382Z,99566.88
2022-08-02T06:08:49.860Z,99562.53
2022-08-02T06:11:23.560Z,99561.41
2022-08-02T06:14:04.409Z,99568.34
2022-08-02T06:16:41.917Z,99569.63
2022-08-02T06:19:14.110Z,99572.56
2022-08-02T06:22:32.599Z,99573.22
2022-08-02T06:24:38.125Z,99571.16
2022-08-02T06:27:10.995Z,99575.09
2022-08-02T06:29:48.769Z,99572.44
2022-08-02T06:32:21.707Z,99576.53
2022-08-02T06:34:53.318Z,99571.25
2022-08-02T06:37:35.845Z,99569.75
2022-08-02T06:40:18.842Z,99582.31
2022-08-02T06:43:14.700Z,99584.84
2022-08-02T06:45:46.395Z,99578.38
2022-08-02T06:48:18.132Z,99580.00
2022-08-02T06:50:49.762Z,99585.44
2022-08-02T06:53:21.414Z,99576.84
2022-08-02T06:55:52.999Z,99578.22
2022-08-02T06:58:24.748Z,99582.53
2022-08-02T07:00:56.751Z,99570.31
2022-08-02T07:03:28.588Z,99572.75
2022-08-02T07:06:00.307Z,99572.19
2022-08-02T07:08:34.041Z,99578.72
2022-08-02T07:11:06.571Z,99582.78
2022-08-02T07:13:39.955Z,99582.78
2022-08-02T07:16:11.758Z,99575.38
2022-08-02T07:18:43.380Z,99585.75
2022-08-02T07:21:14.957Z,99575.97
2022-08-02T07:23:47.716Z,99569.97
2022-08-02T07:26:19.303Z,99564.44
2022-08-02T07:28:51.003Z,99570.53
2022-08-02T07:31:22.875Z,99572.56
2022-08-02T07:33:54.530Z,99570.38
2022-08-02T07:36:26.131Z,99569.81
2022-08-02T07:38:58.117Z,99572.94
2022-08-02T07:41:30.222Z,99561.63
2022-08-02T07:44:02.123Z,99564.84
2022-08-02T07:46:33.783Z,99567.81
2022-08-02T07:49:05.530Z,99571.13
2022-08-02T07:51:37.190Z,99557.31
2022-08-02T07:54:08.779Z,99564.00
2022-08-02T07:56:41.777Z,99560.06
2022-08-02T07:59:13.492Z,99561.53
2022-08-02T08:01:46.239Z,99565.53
2022-08-02T08:04:18.541Z,99567.13
2022-08-02T08:06:52.174Z,99571.28
2022-08-02T08:09:23.934Z,99561.81
2022-08-02T08:11:55.566Z,99569.34
2022-08-02T08:14:27.190Z,99557.78
2022-08-02T08:16:58.786Z,99575.44
2022-08-02T08:19:36.498Z,99561.22
2022-08-02T08:22:23.680Z,99558.25
2022-08-02T08:24:55.274Z,99563.41
2022-08-02T08:27:26.903Z,99564.59
2022-08-02T08:29:58.565Z,99560.16
2022-08-02T08:32:30.228Z,99566.19
2022-08-02T08:35:03.850Z,99557.81
2022-08-02T08:37:39.479Z,99563.44
2022-08-02T08:40:12.640Z,99562.22
2022-08-02T08:42:44.267Z,99562.22
2022-08-02T08:45:17.936Z,99559.72
2022-08-02T08:48:00.252Z,99561.06
2022-08-02T08:50:36.541Z,99556.53
2022-08-02T08:53:09.077Z,99557.44
2022-08-02T08:55:45.380Z,99562.06
2022-08-02T08:58:17.212Z,99561.81
2022-08-02T09:00:49.297Z,99562.09
2022-08-02T09:03:22.852Z,99551.06
2022-08-02T09:05:59.073Z,99551.69
2022-08-02T09:08:31.113Z,99554.91
2022-08-02T09:11:12.759Z,99551.13
2022-08-02T09:13:56.674Z,99561.78
2022-08-02T09:16:37.665Z,99553.44
2022-08-02T09:19:20.592Z,99557.53
2022-08-02T09:22:01.739Z,99549.09
2022-08-02T09:24:48.072Z,99553.31
2022-08-02T09:27:23.131Z,99553.28
2022-08-02T09:30:12.269Z,99559.97
2022-08-02T09:32:47.858Z,99560.09
2022-08-02T09:36:07.354Z,99553.06
2022-08-02T09:38:29.410Z,99557.28
2022-08-02T09:41:01.842Z,99554.31
2022-08-02T09:43:38.617Z,99554.47
2022-08-02T09:46:32.343Z,99554.88
2022-08-02T09:49:09.119Z,99559.66
2022-08-02T09:51:47.353Z,99554.16
2022-08-02T09:54:23.193Z,99549.59
2022-08-02T09:57:00.659Z,99553.28
2022-08-02T09:59:32.656Z,99546.25
2022-08-02T10:02:17.576Z,99542.41
2022-08-02T10:04:54.193Z,99539.28
2022-08-02T10:07:26.075Z,99552.31
2022-08-02T10:09:58.196Z,99541.16
2022-08-02T10:12:30.139Z,99546.28
2022-08-02T10:15:02.496Z,99544.22
2022-08-02T10:17:35.553Z,99533.84
2022-08-02T10:20:07.705Z,99534.59
2022-08-02T10:22:40.805Z,99535.81
2022-08-02T10:25:13.311Z,99536.81
2022-08-02T10:28:04.109Z,99525.44
2022-08-02T10:30:39.490Z,99526.47
2022-08-02T10:33:13.148Z,99524.84
2022-08-02T10:35:47.514Z,99525.56
2022-08-02T10:38:36.884Z,99525.44
2022-08-02T10:41:08.553Z,99535.78
2022-08-02T10:43:43.124Z,99527.94
2022-08-02T10:46:35.757Z,99524.94
2022-08-02T10:49:39.285Z,99521.69
2022-08-02T10:52:14.335Z,99522.00
2022-08-02T10:54:59.323Z,99520.47
2022-08-02T10:57:36.444Z,99507.25
2022-08-02T11:00:19.240Z,99505.09
2022-08-02T11:02:54.181Z,99500.50
2022-08-02T11:05:42.212Z,99507.81
2022-08-02T11:08:22.504Z,99503.00
2022-08-02T11:11:10.007Z,99499.38
2022-08-02T11:14:02.587Z,99489.84
2022-08-02T11:16:56.609Z,99493.09
2022-08-02T11:19:29.172Z,99494.78
2022-08-02T11:22:11.720Z,99489.63
2022-08-02T11:24:43.510Z,99489.84
2022-08-02T11:27:21.925Z,99482.22
2022-08-02T11:29:54.059Z,99489.38
2022-08-02T11:32:30.561Z,99493.25
2022-08-02T11:35:03.542Z,99478.44
2022-08-02T11:37:36.694Z,99483.19
2022-08-02T11:40:18.947Z,99490.53
2022-08-02T11:42:53.648Z,99491.13
2022-08-02T11:45:29.738Z,99485.50
2022-08-02T11:48:01.635Z,99483.56
2022-08-02T11:50:33.990Z,99480.78
2022-08-02T11:53:16.412Z,99491.16
2022-08-02T11:55:48.154Z,99481.63
2022-08-02T11:58:19.716Z,99482.28
2022-08-02T12:00:53.837Z,99473.03
2022-08-02T12:03:25.477Z,99464.16
2022-08-02T12:06:06.108Z,99457.66
2022-08-02T12:08:38.625Z,99458.81
2022-08-02T12:11:10.276Z,99465.00
2022-08-02T12:13:44.245Z,99462.63
2022-08-02T12:16:34.672Z,99464.09
2022-08-02T12:19:18.919Z,99460.63
2022-08-02T12:22:10.067Z,99456.31
2022-08-02T12:24:50.934Z,99462.91
2022-08-02T12:27:35.189Z,99467.59
2022-08-02T12:30:10.739Z,99464.22
2022-08-02T12:32:43.258Z,99463.97
2022-08-02T12:35:26.836Z,99457.91
2022-08-02T12:38:10.442Z,99454.69
2022-08-02T12:40:42.473Z,99453.19
2022-08-02T12:43:32.394Z,99449.75
2022-08-02T12:46:04.230Z,99445.78
2022-08-02T12:48:52.290Z,99446.59
2022-08-02T12:51:56.485Z,99446.38
2022-08-02T12:54:40.381Z,99448.72
2022-08-02T12:57:14.263Z,99442.88
2022-08-02T12:59:53.248Z,99446.66
2022-08-02T13:02:25.071Z,99448.22
2022-08-02T13:05:00.036Z,99443.56
2022-08-02T13:07:31.626Z,99434.03
2022-08-02T13:10:03.853Z,99436.31
2022-08-02T13:12:37.436Z,99427.78
2022-08-02T13:15:12.342Z,99417.78
2022-08-02T13:18:01.921Z,99429.72
2022-08-02T13:20:33.588Z,99414.72
2022-08-02T13:23:06.187Z,99428.66
2022-08-02T13:25:37.945Z,99413.91
2022-08-02T13:28:09.552Z,99420.84
2022-08-02T13:30:41.198Z,99409.00
2022-08-02T13:33:13.179Z,99409.38
2022-08-02T13:35:45.934Z,99393.34
2022-08-02T13:38:19.843Z,99386.81
2022-08-02T13:41:09.798Z,99387.44
2022-08-02T13:43:52.792Z,99374.34
2022-08-02T13:46:29.006Z,99370.53
2022-08-02T13:49:01.955Z,99367.38
2022-08-02T13:51:33.824Z,99368.63
2022-08-02T13:54:08.958Z,99360.19
2022-08-02T13:56:40.617Z,99362.09
2022-08-02T13:59:54.110Z,99355.47
2022-08-02T14:02:03.991Z,99357.81
2022-08-02T14:04:36.873Z,99357.66
2022-08-02T14:07:08.596Z,99356.94
2022-08-02T14:09:40.578Z,99347.19
2022-08-02T14:12:13.372Z,99358.47
2022-08-02T14:14:45.206Z,99351.25
2022-08-02T14:17:18.951Z,99354.59
2022-08-02T14:19:50.958Z,99352.91
2022-08-02T14:22:23.005Z,99356.66
2022-08-02T14:24:57.551Z,99346.16
2022-08-02T14:27:40.518Z,99352.50
2022-08-02T14:30:12.644Z,99345.41
2022-08-02T14:32:44.764Z,99349.78
2022-08-02T14:35:16.443Z,99350.09
2022-08-02T14:37:48.099Z,99345.81
2022-08-02T14:40:30.768Z,99356.16
2022-08-02T14:43:04.195Z,99355.59
2022-08-02T14:45:39.764Z,99352.88
2022-08-02T14:48:12.874Z,99354.78
2022-08-02T14:50:44.473Z,99351.13
2022-08-02T14:53:16.130Z,99355.47
2022-08-02T14:55:47.809Z,99355.38
2022-08-02T14:58:19.750Z,99353.03
2022-08-02T15:00:51.426Z,99350.84
2022-08-02T15:03:24.433Z,99347.88
2022-08-02T15:05:56.448Z,99344.03
2022-08-02T15:08:28.088Z,99331.63
2022-08-02T15:10:59.655Z,99332.97
2022-08-02T15:13:31.270Z,99340.78
2022-08-02T15:16:03.275Z,99333.66
2022-08-02T15:18:34.902Z,99329.16
2022-08-02T15:21:40.334Z,99329.16
2022-08-02T15:23:58.783Z,99334.75
2022-08-02T15:26:30.330Z,99334.50
2022-08-02T15:29:01.982Z,99331.63
2022-08-02T15:31:33.831Z,99321.91
2022-08-02T15:34:06.129Z,99318.88
2022-08-02T15:36:37.826Z,99313.31
2022-08-02T15:39:09.566Z,99311.34
2022-08-02T15:41:41.178Z,99317.91
2022-08-02T15:44:14.042Z,99314.94
2022-08-02T15:46:45.636Z,99315.22
2022-08-02T15:49:17.599Z,99320.72
2022-08-02T15:51:50.790Z,99319.09
2022-08-02T15:54:24.466Z,99318.84
2022-08-02T15:56:56.033Z,99319.44
2022-08-02T15:59:27.706Z,99327.81
2022-08-02T16:01:59.337Z,99323.13
2022-08-02T16:04:31.796Z,99329.16
2022-08-02T16:07:03.605Z,99326.09
2022-08-02T16:09:36.140Z,99334.13
2022-08-02T16:12:08.175Z,99337.66
2022-08-02T16:14:39.997Z,99329.19
2022-08-02T16:17:11.586Z,99332.97
2022-08-02T16:19:49.156Z,99332.28
2022-08-02T16:22:22.233Z,99337.00
2022-08-02T16:24:53.866Z,99331.06
2022-08-02T16:27:25.492Z,99326.72
2022-08-02T16:29:57.215Z,99323.13
2022-08-02T16:32:28.813Z,99318.50
2022-08-02T16:35:07.650Z,99316.66
2022-08-02T16:37:51.943Z,99320.19
2022-08-02T16:40:24.382Z,99322.66
2022-08-02T16:42:56.309Z,99308.81
2022-08-02T16:45:28.509Z,99315.88
2022-08-02T16:48:05.641Z,99316.44
2022-08-02T16:50:37.794Z,99312.91
2022-08-02T16:53:12.200Z,99319.44
2022-08-02T16:55:52.005Z,99319.16
2022-08-02T16:58:27.424Z,99308.09
2022-08-02T17:00:59.061Z,99314.63
2022-08-02T17:03:55.709Z,99318.97
2022-08-02T17:06:22.342Z,99319.53
2022-08-02T17:08:58.074Z,99315.56
2022-08-02T17:11:30.960Z,99311.78
2022-08-02T17:14:02.845Z,99312.34
2022-08-02T17:16:35.461Z,99319.44
2022-08-02T17:19:07.874Z,99317.31
2022-08-02T17:21:39.505Z,99321.72
2022-08-02T17:24:11.058Z,99320.69
2022-08-02T17:26:43.511Z,99321.53
2022-08-02T17:29:18.016Z,99316.97
2022-08-02T17:32:05.853Z,99313.69
2022-08-02T17:34:40.895Z,99318.31
2022-08-02T17:37:28.706Z,99317.00
2022-08-02T17:40:03.001Z,99317.34
2022-08-02T17:42:36.228Z,99317.09
2022-08-02T17:45:17.085Z,99320.91
2022-08-02T17:48:04.646Z,99320.09
2022-08-02T17:50:37.329Z,99321.75
2022-08-02T17:53:09.030Z,99314.19
2022-08-02T17:55:42.553Z,99315.00
2022-08-02T17:58:17.406Z,99316.66
2022-08-02T18:00:48.984Z,99323.19
2022-08-02T18:03:22.932Z,99321.31
2022-08-02T18:05:55.370Z,99317.78
2022-08-02T18:08:27.671Z,99325.69
2022-08-02T18:10:59.284Z,99328.44
2022-08-02T18:13:33.039Z,99325.22
2022-08-02T18:16:20.944Z,99326.03
2022-08-02T18:18:53.182Z,99319.53
2022-08-02T18:21:24.806Z,99333.41
2022-08-02T18:23:58.693Z,99329.09
2022-08-02T18:26:30.944Z,99332.09
2022-08-02T18:29:04.914Z,99329.91
2022-08-02T18:31:40.228Z,99328.31
2022-08-02T18:34:24.275Z,99329.72
2022-08-02T18:36:56.038Z,99325.91
2022-08-02T18:39:27.915Z,99326.50
2022-08-02T18:42:04.832Z,99329.75
2022-08-02T18:44:36.790Z,99335.19
2022-08-02T18:47:11.429Z,99329.53
2022-08-02T18:49:46.686Z,99331.44
2022-08-02T18:52:31.607Z,99338.22
2022-08-02T18:55:10.169Z,99332.22
2022-08-02T18:58:16.946Z,99336.84
2022-08-02T19:00:41.906Z,99336.06
2022-08-02T19:03:14.929Z,99344.19
2022-08-02T19:05:52.133Z,99347.75
2022-08-02T19:08:26.275Z,99350.19
2022-08-02T19:10:58.176Z,99345.88
2022-08-02T19:13:36.951Z,99342.88
2022-08-02T19:16:12.377Z,99342.88
2022-08-02T19:18:44.085Z,99354.25
2022-08-02T19:21:18.468Z,99356.16
2022-08-02T19:24:10.134Z,99365.41
2022-08-02T19:26:42.078Z,99361.06
2022-08-02T19:29:13.821Z,99364.03
2022-08-02T19:32:00.226Z,99363.78
2022-08-02T19:34:34.039Z,99364.25
2022-08-02T19:37:09.721Z,99364.25
2022-08-02T19:39:49.161Z,99365.88
2022-08-02T19:42:22.018Z,99365.88
2022-08-02T19:44:53.694Z,99363.16
2022-08-02T19:47:25.341Z,99365.59
2022-08-02T19:50:14.812Z,99369.94
2022-08-02T19:52:47.058Z,99370.72
2022-08-02T19:56:00.260Z,99375.31
2022-08-02T19:58:16.114Z,99381.28
2022-08-02T20:00:47.726Z,99382.34
2022-08-02T20:03:20.672Z,99381.53
2022-08-02T20:06:13.764Z,99382.84
2022-08-02T20:08:53.355Z,99381.72
2022-08-02T20:11:34.710Z,99384.91
2022-08-02T20:14:07.656Z,99386.78
2022-08-02T20:16:39.471Z,99386.22
2022-08-02T20:19:13.935Z,99381.88
2022-08-02T20:21:52.954Z,99386.44
2022-08-02T20:24:29.990Z,99386.97
2022-08-02T20:27:02.080Z,99392.59
2022-08-02T20:29:43.133Z,99388.25
2022-08-02T20:32:23.722Z,99398.47
2022-08-02T20:34:55.433Z,99395.38
2022-08-02T20:38:00.380Z,99400.47
2022-08-02T20:40:18.997Z,99396.63
2022-08-02T20:42:51.274Z,99389.84
2022-08-02T20:45:27.115Z,99392.50
2022-08-02T20:47:58.897Z,99399.72
2022-08-02T20:50:50.753Z,99401.03
2022-08-02T20:53:23.625Z,99403.69
2022-08-02T20:55:57.653Z,99404.19
2022-08-02T20:58:29.388Z,99408.25
2022-08-02T21:01:02.773Z,99399.28
2022-08-02T21:03:40.136Z,99401.66
2022-08-02T21:06:15.029Z,99399.94
2022-08-02T21:08:48.595Z,99400.72
2022-08-02T21:11:20.264Z,99395.81
2022-08-02T21:14:07.528Z,99391.75
2022-08-02T21:16:40.547Z,99396.59
2022-08-02T21:19:12.438Z,99396.84
2022-08-02T21:21:43.993Z,99391.72
2022-08-02T21:24:17.662Z,99389.78
2022-08-02T21:26:56.206Z,99383.25
2022-08-02T21:29:28.258Z,99387.84
2022-08-02T21:32:05.139Z,99388.34
2022-08-02T21:34:36.906Z,99391.00
2022-08-02T21:37:09.781Z,99394.44
2022-08-02T21:39:41.831Z,99386.06
2022-08-02T21:42:22.321Z,99391.41
2022-08-02T21:44:55.716Z,99391.34
2022-08-02T21:47:27.425Z,99387.78
2022-08-02T21:50:13.358Z,99389.91
2022-08-02T21:52:52.333Z,99386.34
2022-08-02T21:56:00.540Z,99392.13
2022-08-02T21:58:15.917Z,99390.19
2022-08-02T22:00:51.725Z,99392.59
2022-08-02T22:03:23.843Z,99393.66
2022-08-02T22:05:55.492Z,99385.50
2022-08-02T22:08:27.199Z,99395.13
2022-08-02T22:11:03.268Z,99395.34
2022-08-02T22:13:38.748Z,99392.31
2022-08-02T22:16:19.347Z,99397.63
2022-08-02T22:18:52.764Z,99401.91
2022-08-02T22:21:32.379Z,99398.63
2022-08-02T22:24:19.419Z,99392.94
2022-08-02T22:27:01.185Z,99399.03
2022-08-02T22:29:34.122Z,99398.50
2022-08-02T22:32:06.557Z,99403.31
2022-08-02T22:34:51.820Z,99406.25
2022-08-02T22:38:15.039Z,99403.81
2022-08-02T22:40:15.702Z,99401.59
2022-08-02T22:42:48.810Z,99408.31
2022-08-02T22:45:21.130Z,99396.97
2022-08-02T22:47:55.734Z,99409.03
2022-08-02T22:50:27.609Z,99403.56
2022-08-02T22:52:59.741Z,99403.72
2022-08-02T22:55:41.379Z,99400.13
2022-08-02T22:58:13.842Z,99414.09
2022-08-02T23:00:45.904Z,99407.31
2022-08-02T23:03:17.457Z,99413.75
2022-08-02T23:05:50.037Z,99405.34
2022-08-02T23:08:22.089Z,99418.25
2022-08-02T23:10:53.711Z,99417.09
2022-08-02T23:13:28.274Z,99419.47
2022-08-02T23:16:18.289Z,99419.13
2022-08-02T23:19:25.324Z,99414.50
2022-08-02T23:22:01.707Z,99413.59
2022-08-02T23:24:35.782Z,99411.38
2022-08-02T23:27:07.485Z,99415.69
2022-08-02T23:29:39.078Z,99421.34
2022-08-02T23:32:11.032Z,99418.31
2022-08-02T23:34:43.311Z,99424.41
2022-08-02T23:37:14.916Z,99422.19
2022-08-02T23:39:46.549Z,99419.19
2022-08-02T23:42:18.458Z,99422.09
2022-08-02T23:44:50.231Z,99415.59
2022-08-02T23:47:21.901Z,99419.81
2022-08-02T23:49:53.550Z,99423.81
2022-08-02T23:52:25.306Z,99422.88
2022-08-02T23:54:56.924Z,99415.53
2022-08-02T23:57:28.512Z,99417.84
